KVKS/VKS METAR and TAF weather

Enter ICAO airport designator
Station Type Date Time Source
KVKS METAR 2019/07/15 20:15 UTC NOAA

KVKS 152015Z AUTO 19012G18KT 10SM FEW025 SCT030 29/24 A2998 RMK A01


Station Type Date Time Source
KVKS Decoded METAR 2019/07/15 20:15 UTC NOAA

Vicksburg Municipal, MS, United States (KVKS) 32-14N 090-56W
Jul 15, 2019 - 04:15 PM EDT / 2019.07.15 2015 UTC
Wind: from the S (190 degrees) at 14 MPH (12 KT) gusting to 21 MPH (18 KT):0
Visibility: 10 mile(s):0
Sky conditions: partly cloudy
Temperature: 84 F (29 C)
Dew Point: 75 F (24 C)
Relative Humidity: 74%
Pressure (altimeter): 29.98 in. Hg (1015 hPa)
ob: KVKS 152015Z AUTO 19012G18KT 10SM FEW025 SCT030 29/24 A2998 RMK A01
cycle: 20

Station Type Date Time Source
KVKS TAF UTC NOAA

Error!

Example: see airport list